createdAt,value
2022-08-14T00:03:02.213Z,13.25
2022-08-14T00:18:14.591Z,14.70
2022-08-14T00:33:18.691Z,15.18
2022-08-14T00:48:34.566Z,16.90
2022-08-14T01:03:31.284Z,14.50
2022-08-14T01:18:57.816Z,15.65
2022-08-14T01:35:20.849Z,15.93
2022-08-14T01:49:15.266Z,16.90
2022-08-14T02:04:55.612Z,16.40
2022-08-14T02:19:32.507Z,17.07
2022-08-14T02:34:38.643Z,17.80
2022-08-14T02:49:45.609Z,18.42
2022-08-14T03:04:50.765Z,19.00
2022-08-14T03:19:55.852Z,20.97
2022-08-14T03:35:01.552Z,19.90
2022-08-14T03:50:12.518Z,20.57
2022-08-14T04:05:19.417Z,20.88
2022-08-14T04:20:25.492Z,21.27
2022-08-14T04:35:55.320Z,21.80
2022-08-14T04:50:44.860Z,22.43
2022-08-14T05:05:44.877Z,21.57
2022-08-14T05:21:54.898Z,19.70
2022-08-14T05:36:16.823Z,17.85
2022-08-14T05:51:14.452Z,16.17
2022-08-14T06:06:20.626Z,13.93
2022-08-14T06:21:26.088Z,12.60
2022-08-14T06:36:31.203Z,11.40
2022-08-14T06:51:38.797Z,8.90
2022-08-14T07:06:46.709Z,6.53
2022-08-14T07:37:01.131Z,7.87
2022-08-14T07:52:08.245Z,8.35
2022-08-14T08:07:13.974Z,8.43
2022-08-14T08:22:20.664Z,8.63
2022-08-14T08:52:32.107Z,10.13
2022-08-14T09:07:38.403Z,10.35
2022-08-14T09:22:48.063Z,11.22
2022-08-14T09:38:15.544Z,12.18
2022-08-14T09:53:18.666Z,9.00
2022-08-14T10:08:26.377Z,10.43
2022-08-14T10:23:43.003Z,9.63
2022-08-14T10:38:51.982Z,8.58
2022-08-14T10:53:58.518Z,9.95
2022-08-14T11:09:16.850Z,13.38
2022-08-14T11:24:54.092Z,15.23
2022-08-14T11:39:35.030Z,14.03
2022-08-14T11:54:36.553Z,10.67
2022-08-14T12:09:43.079Z,11.50
2022-08-14T12:24:51.300Z,9.43
2022-08-14T12:39:57.111Z,6.83
2022-08-14T12:55:06.471Z,7.30
2022-08-14T13:10:47.785Z,7.80
2022-08-14T13:25:27.929Z,8.20
2022-08-14T13:40:33.192Z,8.10
2022-08-14T13:55:38.375Z,7.07
2022-08-14T14:10:45.261Z,6.97
2022-08-14T14:25:57.390Z,6.63
2022-08-14T14:41:01.427Z,7.70
2022-08-14T14:56:47.298Z,7.50
2022-08-14T15:11:15.512Z,7.27
2022-08-14T15:26:24.124Z,7.57
2022-08-14T15:41:33.641Z,6.97
2022-08-14T15:56:42.785Z,8.33
2022-08-14T16:11:47.561Z,9.03
2022-08-14T16:26:51.737Z,7.70
2022-08-14T16:41:59.605Z,6.37
2022-08-14T16:57:16.800Z,6.33
2022-08-14T17:12:39.023Z,7.40
2022-08-14T17:27:37.574Z,6.77
2022-08-14T17:42:53.881Z,7.30
2022-08-14T17:57:59.074Z,7.70
2022-08-14T18:13:06.115Z,7.77
2022-08-14T18:28:17.907Z,11.05
2022-08-14T18:43:43.246Z,16.57
2022-08-14T18:58:58.504Z,11.08
2022-08-14T19:14:05.197Z,9.98
2022-08-14T19:29:23.617Z,17.02
2022-08-14T19:44:31.954Z,10.95
2022-08-14T19:59:57.611Z,9.93
2022-08-14T20:14:51.757Z,12.43
2022-08-14T20:30:33.851Z,11.55
2022-08-14T20:45:30.768Z,11.33
2022-08-14T21:00:52.275Z,11.15
2022-08-14T21:15:56.840Z,12.35
2022-08-14T21:30:55.867Z,13.25
2022-08-14T21:46:01.175Z,18.60
2022-08-14T22:01:10.399Z,17.12
2022-08-14T22:17:01.868Z,17.07
2022-08-14T22:31:24.013Z,18.77
2022-08-14T22:46:29.255Z,18.05
2022-08-14T23:01:57.275Z,17.27
2022-08-14T23:16:51.656Z,17.67
2022-08-14T23:31:59.060Z,17.60
2022-08-14T23:47:11.843Z,17.50
